sensor_id;sensor_type;location;lat;lon;timestamp;P1;durP1;ratioP1;P2;durP2;ratioP2
24617;SDS011;12762;51.730;5.356;2023-03-19T00:00:37;4.67;;;1.80;;
24617;SDS011;12762;51.730;5.356;2023-03-19T00:03:04;3.00;;;1.40;;
24617;SDS011;12762;51.730;5.356;2023-03-19T00:05:31;3.30;;;1.70;;
24617;SDS011;12762;51.730;5.356;2023-03-19T00:07:59;2.13;;;1.50;;
24617;SDS011;12762;51.730;5.356;2023-03-19T00:10:26;3.53;;;1.50;;
24617;SDS011;12762;51.730;5.356;2023-03-19T00:12:52;2.27;;;1.60;;
24617;SDS011;12762;51.730;5.356;2023-03-19T00:15:19;2.37;;;1.40;;
24617;SDS011;12762;51.730;5.356;2023-03-19T00:17:46;3.33;;;1.40;;
24617;SDS011;12762;51.730;5.356;2023-03-19T00:20:13;3.37;;;1.50;;
24617;SDS011;12762;51.730;5.356;2023-03-19T00:22:40;4.70;;;1.63;;
24617;SDS011;12762;51.730;5.356;2023-03-19T00:25:07;3.67;;;1.50;;
24617;SDS011;12762;51.730;5.356;2023-03-19T00:27:35;2.63;;;1.47;;
24617;SDS011;12762;51.730;5.356;2023-03-19T00:30:05;2.60;;;1.53;;
24617;SDS011;12762;51.730;5.356;2023-03-19T00:32:35;4.03;;;1.90;;
24617;SDS011;12762;51.730;5.356;2023-03-19T00:35:02;3.13;;;1.67;;
24617;SDS011;12762;51.730;5.356;2023-03-19T00:37:34;3.20;;;1.67;;
24617;SDS011;12762;51.730;5.356;2023-03-19T00:40:01;2.90;;;1.50;;
24617;SDS011;12762;51.730;5.356;2023-03-19T00:42:29;2.57;;;1.80;;
24617;SDS011;12762;51.730;5.356;2023-03-19T00:44:57;4.00;;;1.93;;
24617;SDS011;12762;51.730;5.356;2023-03-19T00:47:24;4.37;;;2.00;;
24617;SDS011;12762;51.730;5.356;2023-03-19T00:49:51;4.20;;;2.13;;
24617;SDS011;12762;51.730;5.356;2023-03-19T00:52:17;2.90;;;1.80;;
24617;SDS011;12762;51.730;5.356;2023-03-19T00:54:44;2.70;;;1.90;;
24617;SDS011;12762;51.730;5.356;2023-03-19T00:57:11;3.03;;;1.70;;
24617;SDS011;12762;51.730;5.356;2023-03-19T00:59:38;3.27;;;1.80;;
24617;SDS011;12762;51.730;5.356;2023-03-19T01:02:05;5.03;;;2.17;;
24617;SDS011;12762;51.730;5.356;2023-03-19T01:04:32;3.50;;;1.93;;
24617;SDS011;12762;51.730;5.356;2023-03-19T01:06:59;4.07;;;1.90;;
24617;SDS011;12762;51.730;5.356;2023-03-19T01:09:31;3.07;;;2.00;;
24617;SDS011;12762;51.730;5.356;2023-03-19T01:11:58;4.13;;;1.97;;
24617;SDS011;12762;51.730;5.356;2023-03-19T01:14:29;4.27;;;1.90;;
24617;SDS011;12762;51.730;5.356;2023-03-19T01:16:56;6.10;;;2.40;;
24617;SDS011;12762;51.730;5.356;2023-03-19T01:19:23;3.47;;;2.00;;
24617;SDS011;12762;51.730;5.356;2023-03-19T01:21:50;3.50;;;2.10;;
24617;SDS011;12762;51.730;5.356;2023-03-19T01:24:17;4.00;;;1.90;;
24617;SDS011;12762;51.730;5.356;2023-03-19T01:26:44;3.93;;;2.20;;
24617;SDS011;12762;51.730;5.356;2023-03-19T01:29:10;4.53;;;2.40;;
24617;SDS011;12762;51.730;5.356;2023-03-19T01:31:40;3.87;;;2.40;;
24617;SDS011;12762;51.730;5.356;2023-03-19T01:34:07;5.03;;;2.60;;
24617;SDS011;12762;51.730;5.356;2023-03-19T01:36:34;4.53;;;2.17;;
24617;SDS011;12762;51.730;5.356;2023-03-19T01:39:01;5.67;;;2.83;;
24617;SDS011;12762;51.730;5.356;2023-03-19T01:41:28;4.33;;;2.40;;
24617;SDS011;12762;51.730;5.356;2023-03-19T01:43:55;4.77;;;2.67;;
24617;SDS011;12762;51.730;5.356;2023-03-19T01:48:59;6.37;;;2.97;;
24617;SDS011;12762;51.730;5.356;2023-03-19T01:51:29;6.40;;;2.63;;
24617;SDS011;12762;51.730;5.356;2023-03-19T01:54:03;8.03;;;2.97;;
24617;SDS011;12762;51.730;5.356;2023-03-19T01:56:36;7.60;;;3.60;;
24617;SDS011;12762;51.730;5.356;2023-03-19T01:59:09;5.20;;;2.77;;
24617;SDS011;12762;51.730;5.356;2023-03-19T02:01:48;4.90;;;3.07;;
24617;SDS011;12762;51.730;5.356;2023-03-19T02:04:20;5.57;;;3.00;;
24617;SDS011;12762;51.730;5.356;2023-03-19T02:06:47;4.30;;;2.97;;
24617;SDS011;12762;51.730;5.356;2023-03-19T02:09:14;5.97;;;3.17;;
24617;SDS011;12762;51.730;5.356;2023-03-19T02:11:43;5.70;;;2.80;;
24617;SDS011;12762;51.730;5.356;2023-03-19T02:14:11;6.33;;;3.60;;
24617;SDS011;12762;51.730;5.356;2023-03-19T02:16:41;5.23;;;3.10;;
24617;SDS011;12762;51.730;5.356;2023-03-19T02:19:08;5.87;;;3.00;;
24617;SDS011;12762;51.730;5.356;2023-03-19T02:21:39;6.50;;;3.27;;
24617;SDS011;12762;51.730;5.356;2023-03-19T02:26:33;7.33;;;3.83;;
24617;SDS011;12762;51.730;5.356;2023-03-19T02:29:01;8.10;;;3.67;;
24617;SDS011;12762;51.730;5.356;2023-03-19T02:31:29;7.13;;;3.90;;
24617;SDS011;12762;51.730;5.356;2023-03-19T02:33:59;7.43;;;3.67;;
24617;SDS011;12762;51.730;5.356;2023-03-19T02:36:34;8.07;;;3.70;;
24617;SDS011;12762;51.730;5.356;2023-03-19T02:39:06;8.03;;;4.10;;
24617;SDS011;12762;51.730;5.356;2023-03-19T02:41:37;8.10;;;4.37;;
24617;SDS011;12762;51.730;5.356;2023-03-19T02:44:06;6.77;;;4.17;;
24617;SDS011;12762;51.730;5.356;2023-03-19T02:46:36;5.80;;;3.80;;
24617;SDS011;12762;51.730;5.356;2023-03-19T02:49:03;7.20;;;4.30;;
24617;SDS011;12762;51.730;5.356;2023-03-19T02:51:30;6.43;;;4.27;;
24617;SDS011;12762;51.730;5.356;2023-03-19T02:54:03;6.77;;;4.20;;
24617;SDS011;12762;51.730;5.356;2023-03-19T02:56:30;8.23;;;4.50;;
24617;SDS011;12762;51.730;5.356;2023-03-19T02:58:58;9.13;;;4.90;;
24617;SDS011;12762;51.730;5.356;2023-03-19T03:01:25;9.30;;;4.70;;
24617;SDS011;12762;51.730;5.356;2023-03-19T03:03:52;8.70;;;4.93;;
24617;SDS011;12762;51.730;5.356;2023-03-19T03:06:18;8.97;;;4.93;;
24617;SDS011;12762;51.730;5.356;2023-03-19T03:08:45;10.67;;;5.30;;
24617;SDS011;12762;51.730;5.356;2023-03-19T03:11:12;8.43;;;5.33;;
24617;SDS011;12762;51.730;5.356;2023-03-19T03:13:41;9.53;;;4.93;;
24617;SDS011;12762;51.730;5.356;2023-03-19T03:16:08;8.80;;;5.90;;
24617;SDS011;12762;51.730;5.356;2023-03-19T03:18:35;10.63;;;5.60;;
24617;SDS011;12762;51.730;5.356;2023-03-19T03:21:02;9.93;;;6.00;;
24617;SDS011;12762;51.730;5.356;2023-03-19T03:23:29;9.97;;;5.47;;
24617;SDS011;12762;51.730;5.356;2023-03-19T03:25:56;8.80;;;5.70;;
24617;SDS011;12762;51.730;5.356;2023-03-19T03:28:22;10.37;;;6.37;;
24617;SDS011;12762;51.730;5.356;2023-03-19T03:30:49;14.57;;;6.50;;
24617;SDS011;12762;51.730;5.356;2023-03-19T03:33:16;10.70;;;6.17;;
24617;SDS011;12762;51.730;5.356;2023-03-19T03:35:43;10.40;;;6.50;;
24617;SDS011;12762;51.730;5.356;2023-03-19T03:38:10;11.63;;;6.47;;
24617;SDS011;12762;51.730;5.356;2023-03-19T03:40:38;10.33;;;6.77;;
24617;SDS011;12762;51.730;5.356;2023-03-19T03:43:04;12.40;;;6.90;;
24617;SDS011;12762;51.730;5.356;2023-03-19T03:45:31;11.90;;;6.33;;
24617;SDS011;12762;51.730;5.356;2023-03-19T03:48:07;10.33;;;6.80;;
24617;SDS011;12762;51.730;5.356;2023-03-19T03:50:33;14.80;;;8.43;;
24617;SDS011;12762;51.730;5.356;2023-03-19T03:53:01;10.43;;;6.80;;
24617;SDS011;12762;51.730;5.356;2023-03-19T03:55:29;11.53;;;7.33;;
24617;SDS011;12762;51.730;5.356;2023-03-19T03:57:57;11.53;;;7.50;;
24617;SDS011;12762;51.730;5.356;2023-03-19T04:00:24;12.07;;;7.70;;
24617;SDS011;12762;51.730;5.356;2023-03-19T04:02:51;11.67;;;7.07;;
24617;SDS011;12762;51.730;5.356;2023-03-19T04:05:18;12.40;;;7.27;;
24617;SDS011;12762;51.730;5.356;2023-03-19T04:07:45;13.63;;;8.10;;
24617;SDS011;12762;51.730;5.356;2023-03-19T04:10:13;12.27;;;7.60;;
24617;SDS011;12762;51.730;5.356;2023-03-19T04:12:44;13.53;;;8.33;;
24617;SDS011;12762;51.730;5.356;2023-03-19T04:15:17;15.23;;;8.47;;
24617;SDS011;12762;51.730;5.356;2023-03-19T04:17:44;13.67;;;8.97;;
24617;SDS011;12762;51.730;5.356;2023-03-19T04:20:11;12.37;;;7.43;;
24617;SDS011;12762;51.730;5.356;2023-03-19T04:22:39;17.37;;;8.73;;
24617;SDS011;12762;51.730;5.356;2023-03-19T04:25:06;15.27;;;8.80;;
24617;SDS011;12762;51.730;5.356;2023-03-19T04:27:33;17.10;;;10.33;;
24617;SDS011;12762;51.730;5.356;2023-03-19T04:30:00;13.57;;;8.80;;
24617;SDS011;12762;51.730;5.356;2023-03-19T04:32:28;14.50;;;8.63;;
24617;SDS011;12762;51.730;5.356;2023-03-19T04:34:55;13.60;;;8.87;;
24617;SDS011;12762;51.730;5.356;2023-03-19T04:37:23;19.20;;;9.83;;
24617;SDS011;12762;51.730;5.356;2023-03-19T04:39:50;17.90;;;10.30;;
24617;SDS011;12762;51.730;5.356;2023-03-19T04:42:17;20.60;;;11.50;;
24617;SDS011;12762;51.730;5.356;2023-03-19T04:44:44;19.60;;;11.70;;
24617;SDS011;12762;51.730;5.356;2023-03-19T04:47:11;20.03;;;11.03;;
24617;SDS011;12762;51.730;5.356;2023-03-19T04:49:38;23.57;;;11.90;;
24617;SDS011;12762;51.730;5.356;2023-03-19T04:52:05;23.37;;;11.77;;
24617;SDS011;12762;51.730;5.356;2023-03-19T04:54:32;18.27;;;10.80;;
24617;SDS011;12762;51.730;5.356;2023-03-19T04:56:59;20.07;;;11.27;;
24617;SDS011;12762;51.730;5.356;2023-03-19T04:59:26;20.13;;;11.37;;
24617;SDS011;12762;51.730;5.356;2023-03-19T05:01:53;17.20;;;10.83;;
24617;SDS011;12762;51.730;5.356;2023-03-19T05:04:19;18.03;;;11.17;;
24617;SDS011;12762;51.730;5.356;2023-03-19T05:06:46;18.77;;;11.77;;
24617;SDS011;12762;51.730;5.356;2023-03-19T05:09:16;17.73;;;10.93;;
24617;SDS011;12762;51.730;5.356;2023-03-19T05:11:43;19.43;;;11.07;;
24617;SDS011;12762;51.730;5.356;2023-03-19T05:14:09;18.77;;;11.43;;
24617;SDS011;12762;51.730;5.356;2023-03-19T05:16:36;19.43;;;10.67;;
24617;SDS011;12762;51.730;5.356;2023-03-19T05:19:04;16.93;;;11.10;;
24617;SDS011;12762;51.730;5.356;2023-03-19T05:21:30;17.67;;;10.90;;
24617;SDS011;12762;51.730;5.356;2023-03-19T05:23:57;18.93;;;10.53;;
24617;SDS011;12762;51.730;5.356;2023-03-19T05:26:24;19.53;;;11.53;;
24617;SDS011;12762;51.730;5.356;2023-03-19T05:28:51;19.80;;;12.00;;
24617;SDS011;12762;51.730;5.356;2023-03-19T05:31:18;21.37;;;11.27;;
24617;SDS011;12762;51.730;5.356;2023-03-19T05:33:45;21.60;;;11.63;;
24617;SDS011;12762;51.730;5.356;2023-03-19T05:36:12;18.17;;;11.30;;
24617;SDS011;12762;51.730;5.356;2023-03-19T05:38:39;17.80;;;10.73;;
24617;SDS011;12762;51.730;5.356;2023-03-19T05:41:06;20.00;;;11.03;;
24617;SDS011;12762;51.730;5.356;2023-03-19T05:43:36;17.30;;;10.30;;
24617;SDS011;12762;51.730;5.356;2023-03-19T05:46:03;17.30;;;10.67;;
24617;SDS011;12762;51.730;5.356;2023-03-19T05:48:30;16.40;;;9.53;;
24617;SDS011;12762;51.730;5.356;2023-03-19T05:50:57;16.17;;;9.47;;
24617;SDS011;12762;51.730;5.356;2023-03-19T05:53:24;17.20;;;9.80;;
24617;SDS011;12762;51.730;5.356;2023-03-19T05:55:51;14.57;;;9.27;;
24617;SDS011;12762;51.730;5.356;2023-03-19T05:58:18;15.93;;;8.80;;
24617;SDS011;12762;51.730;5.356;2023-03-19T06:00:44;15.80;;;9.10;;
24617;SDS011;12762;51.730;5.356;2023-03-19T06:03:11;15.17;;;8.97;;
24617;SDS011;12762;51.730;5.356;2023-03-19T06:05:38;13.23;;;8.80;;
24617;SDS011;12762;51.730;5.356;2023-03-19T06:08:05;14.10;;;8.60;;
24617;SDS011;12762;51.730;5.356;2023-03-19T06:10:35;16.20;;;9.00;;
24617;SDS011;12762;51.730;5.356;2023-03-19T06:13:02;13.50;;;8.63;;
24617;SDS011;12762;51.730;5.356;2023-03-19T06:15:30;15.63;;;8.10;;
24617;SDS011;12762;51.730;5.356;2023-03-19T06:17:57;13.20;;;8.50;;
24617;SDS011;12762;51.730;5.356;2023-03-19T06:20:24;13.93;;;7.87;;
24617;SDS011;12762;51.730;5.356;2023-03-19T06:22:51;13.40;;;7.37;;
24617;SDS011;12762;51.730;5.356;2023-03-19T06:25:18;14.43;;;8.07;;
24617;SDS011;12762;51.730;5.356;2023-03-19T06:27:45;14.37;;;8.07;;
24617;SDS011;12762;51.730;5.356;2023-03-19T06:30:12;13.53;;;7.83;;
24617;SDS011;12762;51.730;5.356;2023-03-19T06:32:41;15.13;;;8.23;;
24617;SDS011;12762;51.730;5.356;2023-03-19T06:35:08;14.03;;;7.80;;
24617;SDS011;12762;51.730;5.356;2023-03-19T06:37:35;14.03;;;8.07;;
24617;SDS011;12762;51.730;5.356;2023-03-19T06:40:03;14.73;;;8.03;;
24617;SDS011;12762;51.730;5.356;2023-03-19T06:42:31;12.03;;;8.33;;
24617;SDS011;12762;51.730;5.356;2023-03-19T06:44:57;14.33;;;8.43;;
24617;SDS011;12762;51.730;5.356;2023-03-19T06:47:27;15.63;;;8.93;;
24617;SDS011;12762;51.730;5.356;2023-03-19T06:49:54;17.00;;;9.00;;
24617;SDS011;12762;51.730;5.356;2023-03-19T06:52:24;15.97;;;8.50;;
24617;SDS011;12762;51.730;5.356;2023-03-19T06:54:51;14.93;;;8.57;;
24617;SDS011;12762;51.730;5.356;2023-03-19T06:57:18;15.90;;;9.03;;
24617;SDS011;12762;51.730;5.356;2023-03-19T06:59:44;15.70;;;8.63;;
24617;SDS011;12762;51.730;5.356;2023-03-19T07:02:14;16.73;;;8.97;;
24617;SDS011;12762;51.730;5.356;2023-03-19T07:04:43;17.40;;;8.83;;
24617;SDS011;12762;51.730;5.356;2023-03-19T07:07:13;13.03;;;7.93;;
24617;SDS011;12762;51.730;5.356;2023-03-19T07:09:40;14.83;;;8.93;;
24617;SDS011;12762;51.730;5.356;2023-03-19T07:12:07;11.53;;;7.70;;
24617;SDS011;12762;51.730;5.356;2023-03-19T07:14:34;12.93;;;7.33;;
24617;SDS011;12762;51.730;5.356;2023-03-19T07:17:00;14.47;;;6.90;;
24617;SDS011;12762;51.730;5.356;2023-03-19T07:19:27;13.30;;;7.00;;
24617;SDS011;12762;51.730;5.356;2023-03-19T07:21:54;10.43;;;6.60;;
24617;SDS011;12762;51.730;5.356;2023-03-19T07:24:21;9.80;;;6.00;;
24617;SDS011;12762;51.730;5.356;2023-03-19T07:26:48;15.67;;;6.73;;
24617;SDS011;12762;51.730;5.356;2023-03-19T07:29:15;11.57;;;6.23;;
24617;SDS011;12762;51.730;5.356;2023-03-19T07:31:45;16.10;;;6.37;;
24617;SDS011;12762;51.730;5.356;2023-03-19T07:34:12;16.53;;;6.70;;
24617;SDS011;12762;51.730;5.356;2023-03-19T07:36:39;12.23;;;6.60;;
24617;SDS011;12762;51.730;5.356;2023-03-19T07:39:08;17.00;;;7.10;;
24617;SDS011;12762;51.730;5.356;2023-03-19T07:41:38;12.53;;;5.87;;
24617;SDS011;12762;51.730;5.356;2023-03-19T07:44:05;12.43;;;6.20;;
24617;SDS011;12762;51.730;5.356;2023-03-19T07:46:31;15.93;;;7.17;;
24617;SDS011;12762;51.730;5.356;2023-03-19T07:48:58;10.47;;;6.17;;
24617;SDS011;12762;51.730;5.356;2023-03-19T07:51:25;13.30;;;6.37;;
24617;SDS011;12762;51.730;5.356;2023-03-19T07:53:52;12.10;;;6.57;;
24617;SDS011;12762;51.730;5.356;2023-03-19T07:56:19;14.67;;;6.77;;
24617;SDS011;12762;51.730;5.356;2023-03-19T07:58:46;15.27;;;7.10;;
24617;SDS011;12762;51.730;5.356;2023-03-19T08:01:12;16.33;;;6.73;;
24617;SDS011;12762;51.730;5.356;2023-03-19T08:03:39;15.07;;;7.83;;
24617;SDS011;12762;51.730;5.356;2023-03-19T08:06:06;16.00;;;8.63;;
24617;SDS011;12762;51.730;5.356;2023-03-19T08:08:33;14.33;;;8.27;;
24617;SDS011;12762;51.730;5.356;2023-03-19T08:11:00;15.90;;;8.00;;
24617;SDS011;12762;51.730;5.356;2023-03-19T08:13:27;15.63;;;8.87;;
24617;SDS011;12762;51.730;5.356;2023-03-19T08:15:55;17.53;;;9.10;;
24617;SDS011;12762;51.730;5.356;2023-03-19T08:18:24;14.23;;;8.77;;
24617;SDS011;12762;51.730;5.356;2023-03-19T08:20:51;17.07;;;8.50;;
24617;SDS011;12762;51.730;5.356;2023-03-19T08:23:18;16.53;;;9.10;;
24617;SDS011;12762;51.730;5.356;2023-03-19T08:25:45;13.93;;;8.57;;
24617;SDS011;12762;51.730;5.356;2023-03-19T08:28:12;13.40;;;8.97;;
24617;SDS011;12762;51.730;5.356;2023-03-19T08:30:38;16.17;;;9.13;;
24617;SDS011;12762;51.730;5.356;2023-03-19T08:33:06;18.03;;;11.43;;
24617;SDS011;12762;51.730;5.356;2023-03-19T08:35:34;17.20;;;11.20;;
24617;SDS011;12762;51.730;5.356;2023-03-19T08:38:01;17.70;;;12.33;;
24617;SDS011;12762;51.730;5.356;2023-03-19T08:40:27;25.70;;;13.03;;
24617;SDS011;12762;51.730;5.356;2023-03-19T08:42:54;18.50;;;10.80;;
24617;SDS011;12762;51.730;5.356;2023-03-19T08:45:22;17.40;;;11.67;;
24617;SDS011;12762;51.730;5.356;2023-03-19T08:47:48;17.77;;;11.47;;
24617;SDS011;12762;51.730;5.356;2023-03-19T08:50:16;17.53;;;12.00;;
24617;SDS011;12762;51.730;5.356;2023-03-19T08:52:43;19.70;;;12.47;;
24617;SDS011;12762;51.730;5.356;2023-03-19T08:55:10;25.97;;;12.83;;
24617;SDS011;12762;51.730;5.356;2023-03-19T08:57:37;18.80;;;12.97;;
24617;SDS011;12762;51.730;5.356;2023-03-19T09:00:04;17.50;;;12.50;;
24617;SDS011;12762;51.730;5.356;2023-03-19T09:02:32;17.00;;;12.67;;
24617;SDS011;12762;51.730;5.356;2023-03-19T09:04:59;20.97;;;12.87;;
24617;SDS011;12762;51.730;5.356;2023-03-19T09:07:25;18.00;;;12.47;;
24617;SDS011;12762;51.730;5.356;2023-03-19T09:09:52;21.50;;;14.03;;
24617;SDS011;12762;51.730;5.356;2023-03-19T09:12:19;22.53;;;13.50;;
24617;SDS011;12762;51.730;5.356;2023-03-19T09:14:46;22.30;;;14.37;;
24617;SDS011;12762;51.730;5.356;2023-03-19T09:17:13;19.30;;;14.60;;
24617;SDS011;12762;51.730;5.356;2023-03-19T09:19:40;21.80;;;13.60;;
24617;SDS011;12762;51.730;5.356;2023-03-19T09:22:07;26.23;;;13.67;;
24617;SDS011;12762;51.730;5.356;2023-03-19T09:24:34;27.83;;;15.23;;
24617;SDS011;12762;51.730;5.356;2023-03-19T09:27:03;27.20;;;15.33;;
24617;SDS011;12762;51.730;5.356;2023-03-19T09:29:33;24.73;;;15.87;;
24617;SDS011;12762;51.730;5.356;2023-03-19T09:32:00;25.53;;;16.60;;
24617;SDS011;12762;51.730;5.356;2023-03-19T09:34:27;26.77;;;16.90;;
24617;SDS011;12762;51.730;5.356;2023-03-19T09:36:54;23.37;;;15.63;;
24617;SDS011;12762;51.730;5.356;2023-03-19T09:39:20;22.40;;;14.73;;
24617;SDS011;12762;51.730;5.356;2023-03-19T09:42:26;22.17;;;15.30;;
24617;SDS011;12762;51.730;5.356;2023-03-19T09:44:51;23.63;;;13.80;;
24617;SDS011;12762;51.730;5.356;2023-03-19T09:49:58;24.47;;;15.80;;
24617;SDS011;12762;51.730;5.356;2023-03-19T09:52:33;23.17;;;14.83;;
24617;SDS011;12762;51.730;5.356;2023-03-19T09:55:19;20.40;;;14.33;;
24617;SDS011;12762;51.730;5.356;2023-03-19T09:57:54;22.30;;;14.00;;
24617;SDS011;12762;51.730;5.356;2023-03-19T10:00:29;19.67;;;13.80;;
24617;SDS011;12762;51.730;5.356;2023-03-19T10:08:16;21.87;;;13.17;;
24617;SDS011;12762;51.730;5.356;2023-03-19T10:16:27;19.20;;;13.00;;
24617;SDS011;12762;51.730;5.356;2023-03-19T10:18:57;22.53;;;13.20;;
24617;SDS011;12762;51.730;5.356;2023-03-19T10:21:29;23.00;;;13.43;;
24617;SDS011;12762;51.730;5.356;2023-03-19T10:24:06;20.80;;;12.07;;
24617;SDS011;12762;51.730;5.356;2023-03-19T10:26:43;18.77;;;11.03;;
24617;SDS011;12762;51.730;5.356;2023-03-19T10:29:17;16.17;;;10.13;;
24617;SDS011;12762;51.730;5.356;2023-03-19T10:31:52;21.10;;;10.67;;
24617;SDS011;12762;51.730;5.356;2023-03-19T10:34:40;19.10;;;10.10;;
24617;SDS011;12762;51.730;5.356;2023-03-19T10:37:13;21.17;;;11.17;;
24617;SDS011;12762;51.730;5.356;2023-03-19T10:39:48;19.13;;;11.10;;
24617;SDS011;12762;51.730;5.356;2023-03-19T10:42:33;20.37;;;11.67;;
24617;SDS011;12762;51.730;5.356;2023-03-19T10:47:46;20.70;;;11.40;;
24617;SDS011;12762;51.730;5.356;2023-03-19T10:50:17;25.03;;;11.57;;
24617;SDS011;12762;51.730;5.356;2023-03-19T10:52:49;22.60;;;12.10;;
24617;SDS011;12762;51.730;5.356;2023-03-19T10:55:24;22.87;;;12.07;;
24617;SDS011;12762;51.730;5.356;2023-03-19T10:58:15;22.37;;;12.67;;
24617;SDS011;12762;51.730;5.356;2023-03-19T11:00:55;19.17;;;11.43;;
24617;SDS011;12762;51.730;5.356;2023-03-19T11:03:34;19.77;;;12.00;;
24617;SDS011;12762;51.730;5.356;2023-03-19T11:11:34;30.37;;;14.67;;
24617;SDS011;12762;51.730;5.356;2023-03-19T11:14:12;32.63;;;16.70;;
24617;SDS011;12762;51.730;5.356;2023-03-19T11:17:15;27.77;;;15.37;;
24617;SDS011;12762;51.730;5.356;2023-03-19T11:19:54;31.13;;;17.30;;
24617;SDS011;12762;51.730;5.356;2023-03-19T11:22:27;26.83;;;17.03;;
24617;SDS011;12762;51.730;5.356;2023-03-19T11:24:59;29.47;;;16.40;;
24617;SDS011;12762;51.730;5.356;2023-03-19T11:27:39;26.53;;;15.37;;
24617;SDS011;12762;51.730;5.356;2023-03-19T11:30:18;25.60;;;15.40;;
24617;SDS011;12762;51.730;5.356;2023-03-19T11:38:32;23.57;;;13.47;;
24617;SDS011;12762;51.730;5.356;2023-03-19T11:43:51;21.13;;;13.97;;
24617;SDS011;12762;51.730;5.356;2023-03-19T11:49:50;25.30;;;13.97;;
24617;SDS011;12762;51.730;5.356;2023-03-19T12:05:43;17.37;;;11.77;;
24617;SDS011;12762;51.730;5.356;2023-03-19T12:08:38;20.40;;;11.83;;
24617;SDS011;12762;51.730;5.356;2023-03-19T12:11:25;18.57;;;11.60;;
24617;SDS011;12762;51.730;5.356;2023-03-19T12:17:06;17.57;;;11.30;;
24617;SDS011;12762;51.730;5.356;2023-03-19T12:35:38;14.03;;;9.23;;
24617;SDS011;12762;51.730;5.356;2023-03-19T12:41:02;17.47;;;10.30;;
24617;SDS011;12762;51.730;5.356;2023-03-19T12:46:52;16.70;;;9.57;;
24617;SDS011;12762;51.730;5.356;2023-03-19T12:49:29;17.13;;;10.07;;
24617;SDS011;12762;51.730;5.356;2023-03-19T12:52:05;19.20;;;9.67;;
24617;SDS011;12762;51.730;5.356;2023-03-19T12:55:05;15.73;;;9.57;;
24617;SDS011;12762;51.730;5.356;2023-03-19T12:57:46;17.10;;;9.03;;
24617;SDS011;12762;51.730;5.356;2023-03-19T13:00:31;15.37;;;9.23;;
24617;SDS011;12762;51.730;5.356;2023-03-19T13:06:03;15.07;;;8.63;;
24617;SDS011;12762;51.730;5.356;2023-03-19T13:08:51;15.27;;;9.47;;
24617;SDS011;12762;51.730;5.356;2023-03-19T13:23:41;13.20;;;8.67;;
24617;SDS011;12762;51.730;5.356;2023-03-19T13:26:11;16.07;;;9.10;;
24617;SDS011;12762;51.730;5.356;2023-03-19T13:28:53;15.53;;;8.83;;
24617;SDS011;12762;51.730;5.356;2023-03-19T13:31:26;14.77;;;9.40;;
24617;SDS011;12762;51.730;5.356;2023-03-19T13:33:59;17.87;;;9.70;;
24617;SDS011;12762;51.730;5.356;2023-03-19T13:36:38;16.47;;;9.87;;
24617;SDS011;12762;51.730;5.356;2023-03-19T13:39:25;16.37;;;9.43;;
24617;SDS011;12762;51.730;5.356;2023-03-19T13:42:20;16.40;;;10.10;;
24617;SDS011;12762;51.730;5.356;2023-03-19T13:45:02;15.80;;;9.63;;
24617;SDS011;12762;51.730;5.356;2023-03-19T13:47:50;16.37;;;10.13;;
24617;SDS011;12762;51.730;5.356;2023-03-19T13:52:46;19.47;;;9.37;;
24617;SDS011;12762;51.730;5.356;2023-03-19T13:58:20;15.70;;;9.83;;
24617;SDS011;12762;51.730;5.356;2023-03-19T14:01:09;18.43;;;10.40;;
24617;SDS011;12762;51.730;5.356;2023-03-19T14:03:59;18.77;;;9.93;;
24617;SDS011;12762;51.730;5.356;2023-03-19T14:06:44;18.00;;;10.03;;
24617;SDS011;12762;51.730;5.356;2023-03-19T14:12:07;14.50;;;9.40;;
24617;SDS011;12762;51.730;5.356;2023-03-19T14:14:40;17.23;;;9.40;;
24617;SDS011;12762;51.730;5.356;2023-03-19T14:17:13;16.20;;;9.37;;
24617;SDS011;12762;51.730;5.356;2023-03-19T14:23:01;16.70;;;9.33;;
24617;SDS011;12762;51.730;5.356;2023-03-19T14:28:24;15.97;;;9.47;;
24617;SDS011;12762;51.730;5.356;2023-03-19T14:31:14;17.40;;;10.20;;
24617;SDS011;12762;51.730;5.356;2023-03-19T14:36:43;17.10;;;9.73;;
24617;SDS011;12762;51.730;5.356;2023-03-19T14:39:17;14.60;;;9.33;;
24617;SDS011;12762;51.730;5.356;2023-03-19T14:42:38;15.57;;;8.60;;
24617;SDS011;12762;51.730;5.356;2023-03-19T14:56:19;12.60;;;7.40;;
24617;SDS011;12762;51.730;5.356;2023-03-19T14:58:54;12.73;;;7.87;;
24617;SDS011;12762;51.730;5.356;2023-03-19T15:01:22;15.13;;;8.33;;
24617;SDS011;12762;51.730;5.356;2023-03-19T15:03:56;13.30;;;7.33;;
24617;SDS011;12762;51.730;5.356;2023-03-19T15:06:28;17.00;;;7.73;;
24617;SDS011;12762;51.730;5.356;2023-03-19T15:09:04;16.40;;;8.47;;
24617;SDS011;12762;51.730;5.356;2023-03-19T15:11:56;13.50;;;7.27;;
24617;SDS011;12762;51.730;5.356;2023-03-19T15:14:41;15.23;;;7.77;;
24617;SDS011;12762;51.730;5.356;2023-03-19T15:17:18;14.77;;;8.40;;
24617;SDS011;12762;51.730;5.356;2023-03-19T15:19:49;13.53;;;7.80;;
24617;SDS011;12762;51.730;5.356;2023-03-19T15:22:19;13.30;;;7.37;;
24617;SDS011;12762;51.730;5.356;2023-03-19T15:24:50;14.47;;;7.70;;
24617;SDS011;12762;51.730;5.356;2023-03-19T15:27:18;16.40;;;7.13;;
24617;SDS011;12762;51.730;5.356;2023-03-19T15:29:47;15.67;;;7.80;;
24617;SDS011;12762;51.730;5.356;2023-03-19T15:35:34;15.43;;;7.67;;
24617;SDS011;12762;51.730;5.356;2023-03-19T15:38:02;15.33;;;7.80;;
24617;SDS011;12762;51.730;5.356;2023-03-19T15:40:34;16.60;;;8.23;;
24617;SDS011;12762;51.730;5.356;2023-03-19T15:43:02;14.50;;;8.63;;
24617;SDS011;12762;51.730;5.356;2023-03-19T15:45:30;14.03;;;7.80;;
24617;SDS011;12762;51.730;5.356;2023-03-19T15:48:01;16.07;;;7.57;;
24617;SDS011;12762;51.730;5.356;2023-03-19T15:50:33;12.83;;;6.83;;
24617;SDS011;12762;51.730;5.356;2023-03-19T15:53:07;11.77;;;6.87;;
24617;SDS011;12762;51.730;5.356;2023-03-19T15:55:42;11.00;;;6.17;;
24617;SDS011;12762;51.730;5.356;2023-03-19T15:58:11;10.47;;;5.93;;
24617;SDS011;12762;51.730;5.356;2023-03-19T16:00:44;8.13;;;5.10;;
24617;SDS011;12762;51.730;5.356;2023-03-19T16:03:18;7.37;;;5.03;;
24617;SDS011;12762;51.730;5.356;2023-03-19T16:05:50;9.90;;;5.57;;
24617;SDS011;12762;51.730;5.356;2023-03-19T16:08:24;13.60;;;5.40;;
24617;SDS011;12762;51.730;5.356;2023-03-19T16:10:52;8.00;;;5.70;;
24617;SDS011;12762;51.730;5.356;2023-03-19T16:13:25;8.97;;;5.83;;
24617;SDS011;12762;51.730;5.356;2023-03-19T16:16:03;8.47;;;6.00;;
24617;SDS011;12762;51.730;5.356;2023-03-19T16:18:58;11.13;;;6.73;;
24617;SDS011;12762;51.730;5.356;2023-03-19T16:27:06;11.63;;;7.30;;
24617;SDS011;12762;51.730;5.356;2023-03-19T16:29:56;10.87;;;7.13;;
24617;SDS011;12762;51.730;5.356;2023-03-19T16:32:24;14.97;;;7.07;;
24617;SDS011;12762;51.730;5.356;2023-03-19T16:34:56;11.33;;;7.33;;
24617;SDS011;12762;51.730;5.356;2023-03-19T16:37:32;11.53;;;7.37;;
24617;SDS011;12762;51.730;5.356;2023-03-19T16:40:00;12.80;;;7.60;;
24617;SDS011;12762;51.730;5.356;2023-03-19T16:42:45;13.50;;;8.03;;
24617;SDS011;12762;51.730;5.356;2023-03-19T16:47:48;15.87;;;8.13;;
24617;SDS011;12762;51.730;5.356;2023-03-19T16:50:17;13.90;;;8.10;;
24617;SDS011;12762;51.730;5.356;2023-03-19T16:52:46;13.60;;;8.03;;
24617;SDS011;12762;51.730;5.356;2023-03-19T16:55:18;13.97;;;7.37;;
24617;SDS011;12762;51.730;5.356;2023-03-19T17:00:32;14.20;;;8.60;;
24617;SDS011;12762;51.730;5.356;2023-03-19T17:02:59;17.80;;;8.67;;
24617;SDS011;12762;51.730;5.356;2023-03-19T17:05:27;17.00;;;8.17;;
24617;SDS011;12762;51.730;5.356;2023-03-19T17:07:57;17.20;;;8.60;;